Time;durP1;ratioP1;P1;durP2;ratioP2;P2;SDS_P1;SDS_P2;PMS_P1;PMS_P2;Temp;Humidity;BMP_temperature;BMP_pressure;BME280_temperature;BME280_humidity;BME280_pressure;Samples;Min_cycle;Max_cycle;Signal;HPM_P1;HPM_P2
2022/09/25 00:01:06;;;;;;;;;;;;;;;14.52;59.99;99582.59;4365633;32;20014;-91
2022/09/25 00:03:31;;;;;;;;;;;;;;;14.55;60.00;99580.66;4351818;32;20009;-92
2022/09/25 00:06:00;;;;;;;;;;;;;;;14.52;59.99;99570.34;4352490;32;20026;-92
2022/09/25 00:08:25;;;;;;;;;;;;;;;14.50;59.99;99576.56;4364589;32;20058;-92
2022/09/25 00:10:50;;;;;;;;;;;;;;;14.43;59.98;99566.41;4353282;32;26940;-90
2022/09/25 00:13:16;;;;;;;;;;;;;;;14.18;59.97;99570.28;4356118;32;20022;-90
2022/09/25 00:15:45;;;;;;;;;;;;;;;14.28;59.98;99572.38;4369830;32;19993;-89
2022/09/25 00:18:10;;;;;;;;;;;;;;;14.27;59.98;99575.94;4351877;32;20046;-89
2022/09/25 00:20:36;;;;;;;;;;;;;;;14.17;59.96;99566.81;4351373;32;19991;-89
2022/09/25 00:23:01;;;;;;;;;;;;;;;14.22;59.97;99572.69;4364326;32;20038;-90
2022/09/25 00:25:27;;;;;;;;;;;;;;;14.22;59.97;99567.47;4363819;32;20778;-89
2022/09/25 00:27:53;;;;;;;;;;;;;;;14.18;59.97;99558.03;4364329;32;19994;-90
2022/09/25 00:30:18;;;;;;;;;;;;;;;14.04;59.97;99558.75;4364230;32;20009;-89
2022/09/25 00:32:44;;;;;;;;;;;;;;;14.12;59.97;99563.59;4363992;32;20023;-88
2022/09/25 00:35:09;;;;;;;;;;;;;;;14.16;59.97;99559.03;4364213;32;19979;-88
2022/09/25 00:37:34;;;;;;;;;;;;;;;14.29;59.98;99561.00;4364027;32;19986;-88
2022/09/25 00:40:00;;;;;;;;;;;;;;;14.27;59.97;99549.75;4351537;32;20269;-88
2022/09/25 00:42:25;;;;;;;;;;;;;;;14.13;59.97;99552.19;4377738;32;20035;-89
2022/09/25 00:44:57;;;;;;;;;;;;;;;14.25;59.98;99548.12;4364254;32;19998;-89
2022/09/25 00:47:46;;;;;;;;;;;;;;;14.16;59.97;99554.66;4363885;32;19987;-90
2022/09/25 00:50:26;;;;;;;;;;;;;;;14.19;59.97;99558.87;4370776;32;20403;-90
2022/09/25 00:52:53;;;;;;;;;;;;;;;14.21;59.97;99552.69;4378591;32;19996;-89
2022/09/25 00:55:18;;;;;;;;;;;;;;;14.19;59.97;99553.66;4366173;32;19971;-89
2022/09/25 00:57:45;;;;;;;;;;;;;;;14.10;59.97;99550.56;4366099;32;20017;-89
2022/09/25 01:00:10;;;;;;;;;;;;;;;14.19;59.97;99551.03;4353613;32;19991;-89
2022/09/25 01:02:38;;;;;;;;;;;;;;;14.20;59.97;99544.91;4365836;32;19993;-89
2022/09/25 01:05:07;;;;;;;;;;;;;;;14.17;59.96;99551.13;4353616;32;20449;-89
2022/09/25 01:07:33;;;;;;;;;;;;;;;14.26;59.98;99555.06;4365822;32;20050;-89
2022/09/25 01:10:01;;;;;;;;;;;;;;;14.38;59.98;99550.03;4365903;32;20348;-89
2022/09/25 01:12:26;;;;;;;;;;;;;;;14.59;59.99;99537.66;4366388;32;19983;-87
2022/09/25 01:14:52;;;;;;;;;;;;;;;14.52;59.98;99535.44;4365966;32;19966;-89
2022/09/25 01:17:18;;;;;;;;;;;;;;;14.30;59.97;99536.50;4353098;32;19995;-89
2022/09/25 01:19:52;;;;;;;;;;;;;;;14.23;59.97;99536.91;4365035;32;20003;-89
2022/09/25 01:22:20;;;;;;;;;;;;;;;14.35;59.98;99542.34;4365419;32;20392;-89
2022/09/25 01:25:04;;;;;;;;;;;;;;;14.29;59.98;99540.03;4353627;32;19991;-88
2022/09/25 01:27:44;;;;;;;;;;;;;;;14.20;59.97;99540.53;4379594;32;20047;-88
2022/09/25 01:30:10;;;;;;;;;;;;;;;14.33;59.98;99543.34;4365859;32;19987;-88
2022/09/25 01:32:35;;;;;;;;;;;;;;;14.18;59.97;99534.47;4353011;32;20022;-88
2022/09/25 01:35:06;;;;;;;;;;;;;;;14.29;59.97;99537.41;4380033;32;20010;-89
2022/09/25 01:37:32;;;;;;;;;;;;;;;14.20;59.97;99543.13;4367188;32;20356;-89
2022/09/25 01:40:03;;;;;;;;;;;;;;;14.33;59.98;99546.81;4369798;32;20011;-90
2022/09/25 01:42:29;;;;;;;;;;;;;;;14.36;59.97;99544.03;4381490;32;19983;-89
2022/09/25 01:44:58;;;;;;;;;;;;;;;14.41;59.98;99538.56;4366082;32;19975;-89
2022/09/25 01:47:27;;;;;;;;;;;;;;;14.46;59.98;99539.22;4353512;32;20067;-90
2022/09/25 01:49:57;;;;;;;;;;;;;;;14.35;59.98;99537.09;4365570;32;20005;-89
2022/09/25 01:52:24;;;;;;;;;;;;;;;14.34;59.98;99534.56;4365580;32;19989;-89
2022/09/25 01:54:50;;;;;;;;;;;;;;;14.41;59.98;99534.16;4366128;32;19995;-89
2022/09/25 01:57:37;;;;;;;;;;;;;;;14.48;59.98;99531.28;4365685;32;20005;-88
2022/09/25 02:00:05;;;;;;;;;;;;;;;14.45;59.98;99520.97;4365313;32;20041;-89
2022/09/25 02:02:35;;;;;;;;;;;;;;;14.38;59.97;99526.47;4365297;32;19975;-89
2022/09/25 02:05:03;;;;;;;;;;;;;;;14.41;59.99;99526.31;4366292;32;20300;-89
2022/09/25 02:07:29;;;;;;;;;;;;;;;14.18;59.97;99510.91;4365783;32;20474;-89
2022/09/25 02:09:55;;;;;;;;;;;;;;;14.17;59.96;99517.09;4365530;32;19986;-89
2022/09/25 02:12:33;;;;;;;;;;;;;;;14.26;59.96;99521.03;4365313;32;19989;-89
2022/09/25 02:15:08;;;;;;;;;;;;;;;14.18;59.97;99517.94;4353276;32;20009;-90
2022/09/25 02:20:33;;;;;;;;;;;;;;;14.10;59.96;99527.03;4379155;32;19997;-90
2022/09/25 02:23:17;;;;;;;;;;;;;;;13.99;59.95;99534.56;4367041;32;19978;-90
2022/09/25 02:25:55;;;;;;;;;;;;;;;13.98;59.95;99537.28;4379391;32;19993;-90
2022/09/25 02:28:21;;;;;;;;;;;;;;;13.81;59.95;99538.09;4365570;32;20006;-90
2022/09/25 02:30:46;;;;;;;;;;;;;;;13.79;59.95;99538.16;4352823;32;19994;-89
2022/09/25 02:33:11;;;;;;;;;;;;;;;13.80;59.95;99539.00;4365405;32;20017;-90
2022/09/25 02:35:38;;;;;;;;;;;;;;;13.73;59.94;99527.16;4352906;32;19994;-92
2022/09/25 02:38:03;;;;;;;;;;;;;;;13.72;59.94;99528.91;4353589;32;20041;-92
2022/09/25 02:41:01;;;;;;;;;;;;;;;13.83;59.95;99531.84;4353363;32;19998;-92
2022/09/25 02:43:26;;;;;;;;;;;;;;;13.74;59.94;99526.22;4348739;32;19983;-92
2022/09/25 02:46:18;;;;;;;;;;;;;;;13.63;59.93;99528.50;4365423;32;19974;-89
2022/09/25 02:48:53;;;;;;;;;;;;;;;13.59;59.94;99529.56;4354052;32;20006;-91
2022/09/25 02:51:20;;;;;;;;;;;;;;;13.53;59.93;99522.88;4353420;32;20376;-90
2022/09/25 02:53:51;;;;;;;;;;;;;;;13.34;59.92;99532.50;4353657;32;20000;-93
2022/09/25 02:56:24;;;;;;;;;;;;;;;13.48;59.92;99530.06;4354984;32;20336;-94
2022/09/25 02:58:51;;;;;;;;;;;;;;;13.31;59.92;99525.66;4355385;32;19987;-91
2022/09/25 03:01:16;;;;;;;;;;;;;;;13.52;59.93;99518.56;4366165;32;20004;-90
2022/09/25 03:03:42;;;;;;;;;;;;;;;13.37;59.93;99519.28;4367285;32;19983;-90
2022/09/25 03:06:08;;;;;;;;;;;;;;;13.24;59.91;99524.22;4358737;32;20025;-91
2022/09/25 03:08:36;;;;;;;;;;;;;;;13.38;59.93;99518.34;4353296;32;20003;-90
2022/09/25 03:11:02;;;;;;;;;;;;;;;13.28;59.92;99517.09;4365571;32;20331;-89
2022/09/25 03:13:30;;;;;;;;;;;;;;;13.28;59.92;99509.28;4352942;32;19979;-90
2022/09/25 03:15:59;;;;;;;;;;;;;;;13.25;59.91;99510.25;4364707;32;19995;-91
2022/09/25 03:18:24;;;;;;;;;;;;;;;13.23;59.91;99511.22;4352911;32;20009;-91
2022/09/25 03:20:50;;;;;;;;;;;;;;;13.16;59.91;99508.88;4378812;32;20018;-91
2022/09/25 03:23:16;;;;;;;;;;;;;;;13.30;59.92;99512.66;4352978;32;20002;-91
2022/09/25 03:25:41;;;;;;;;;;;;;;;13.27;59.92;99508.41;4352659;32;20296;-88
2022/09/25 03:28:09;;;;;;;;;;;;;;;13.35;59.92;99505.44;4378571;32;19975;-88
2022/09/25 03:30:37;;;;;;;;;;;;;;;13.47;59.92;99504.84;4365020;32;19991;-88
2022/09/25 03:33:02;;;;;;;;;;;;;;;13.41;59.92;99502.53;4364772;32;19983;-88
2022/09/25 03:35:27;;;;;;;;;;;;;;;13.36;59.92;99502.75;4377971;32;20218;-88
2022/09/25 03:37:52;;;;;;;;;;;;;;;13.41;59.92;99492.91;4364478;32;22251;-88
2022/09/25 03:40:17;;;;;;;;;;;;;;;13.36;59.92;99510.59;4364010;32;20562;-88
2022/09/25 03:42:43;;;;;;;;;;;;;;;13.40;59.92;99503.44;4377831;32;29289;-88
2022/09/25 03:45:08;;;;;;;;;;;;;;;13.41;59.92;99511.22;4364849;32;20017;-88
2022/09/25 03:47:34;;;;;;;;;;;;;;;13.41;59.91;99505.13;4352375;32;20011;-88
2022/09/25 03:49:59;;;;;;;;;;;;;;;13.39;59.93;99517.44;4364341;32;19990;-89
2022/09/25 03:52:24;;;;;;;;;;;;;;;13.37;59.92;99529.75;4364475;32;27862;-88
2022/09/25 03:54:50;;;;;;;;;;;;;;;13.43;59.93;99537.28;4364115;32;19993;-89
2022/09/25 03:57:15;;;;;;;;;;;;;;;13.48;59.92;99527.44;4364591;32;19995;-88
2022/09/25 03:59:40;;;;;;;;;;;;;;;13.63;59.93;99526.72;4378289;32;20281;-88
2022/09/25 04:02:06;;;;;;;;;;;;;;;13.51;59.93;99528.19;4340014;32;785513;-89
2022/09/25 04:04:31;;;;;;;;;;;;;;;13.52;59.93;99529.88;4377966;32;29545;-89
2022/09/25 04:06:56;;;;;;;;;;;;;;;13.49;59.94;99537.88;4364413;32;20016;-89
2022/09/25 04:09:22;;;;;;;;;;;;;;;13.57;59.94;99524.41;4352249;32;19983;-89
2022/09/25 04:11:47;;;;;;;;;;;;;;;13.69;59.94;99528.19;4378338;32;20245;-90
2022/09/25 04:14:13;;;;;;;;;;;;;;;13.52;59.94;99519.41;4377880;32;19971;-89
2022/09/25 04:16:39;;;;;;;;;;;;;;;13.74;59.94;99519.22;4364702;32;20006;-89
2022/09/25 04:19:04;;;;;;;;;;;;;;;13.74;59.94;99515.78;4364271;32;20049;-89
2022/09/25 04:21:29;;;;;;;;;;;;;;;13.73;59.95;99517.53;4377462;32;20022;-89
2022/09/25 04:26:38;;;;;;;;;;;;;;;13.85;59.94;99510.84;4367904;32;20041;-89
2022/09/25 04:29:04;;;;;;;;;;;;;;;13.65;59.94;99511.81;4367365;32;27957;-90
2022/09/25 04:31:30;;;;;;;;;;;;;;;13.67;59.94;99516.97;4370661;32;19978;-89
2022/09/25 04:33:55;;;;;;;;;;;;;;;13.62;59.93;99509.34;4366500;32;20086;-90
2022/09/25 04:36:21;;;;;;;;;;;;;;;13.80;59.95;99508.47;4379920;32;20029;-90
2022/09/25 04:38:47;;;;;;;;;;;;;;;13.89;59.95;99507.16;4379823;32;19987;-90
2022/09/25 04:41:12;;;;;;;;;;;;;;;13.90;59.95;99502.75;4353503;32;19983;-89
2022/09/25 04:43:38;;;;;;;;;;;;;;;13.83;59.95;99505.69;4365944;32;20317;-89
2022/09/25 04:46:04;;;;;;;;;;;;;;;13.71;59.94;99506.28;4365563;32;20057;-90
2022/09/25 04:48:30;;;;;;;;;;;;;;;13.75;59.94;99509.62;4366128;32;20025;-90
2022/09/25 04:50:55;;;;;;;;;;;;;;;13.68;59.94;99514.28;4379640;32;20328;-90
2022/09/25 04:53:21;;;;;;;;;;;;;;;13.70;59.94;99516.81;4379189;32;19971;-90
2022/09/25 04:55:47;;;;;;;;;;;;;;;13.72;59.94;99521.06;4365797;32;19990;-90
2022/09/25 04:58:12;;;;;;;;;;;;;;;13.70;59.94;99527.28;4380059;32;19971;-91
2022/09/25 05:00:38;;;;;;;;;;;;;;;13.78;59.94;99519.94;4365048;32;21451;-89
2022/09/25 05:03:03;;;;;;;;;;;;;;;13.88;59.95;99517.69;4353302;32;20360;-88
2022/09/25 05:05:29;;;;;;;;;;;;;;;13.82;59.95;99519.69;4365741;32;20026;-89
2022/09/25 05:07:58;;;;;;;;;;;;;;;13.94;59.96;99520.84;4353241;32;20009;-89
2022/09/25 05:10:26;;;;;;;;;;;;;;;14.22;59.97;99511.63;4353098;32;19998;-89
2022/09/25 05:12:58;;;;;;;;;;;;;;;14.21;59.97;99508.19;4354146;32;20490;-88
2022/09/25 05:15:23;;;;;;;;;;;;;;;14.13;59.97;99512.94;4353443;32;20021;-89
2022/09/25 05:17:48;;;;;;;;;;;;;;;14.15;59.96;99511.06;4353483;32;20656;-89
2022/09/25 05:20:14;;;;;;;;;;;;;;;14.19;59.97;99510.00;4353564;32;19990;-89
2022/09/25 05:22:39;;;;;;;;;;;;;;;14.15;59.96;99516.31;4365102;32;19979;-90
2022/09/25 05:25:04;;;;;;;;;;;;;;;14.34;59.98;99517.09;4365190;32;27201;-89
2022/09/25 05:27:31;;;;;;;;;;;;;;;14.49;59.98;99512.87;4365998;32;20225;-88
2022/09/25 05:29:56;;;;;;;;;;;;;;;14.33;59.96;99519.78;4379718;32;19984;-88
2022/09/25 05:32:22;;;;;;;;;;;;;;;14.39;59.97;99515.06;4379340;32;21249;-88
2022/09/25 05:34:47;;;;;;;;;;;;;;;14.29;59.97;99513.00;4379613;32;19986;-88
2022/09/25 05:37:12;;;;;;;;;;;;;;;14.35;59.98;99515.31;4365608;32;19982;-88
2022/09/25 05:39:37;;;;;;;;;;;;;;;14.42;59.98;99511.44;4364475;32;37451;-91
2022/09/25 05:42:03;;;;;;;;;;;;;;;14.71;59.98;99525.72;4353138;32;20297;-91
2022/09/25 05:44:28;;;;;;;;;;;;;;;14.76;59.99;99531.53;4379878;32;20018;-90
2022/09/25 05:46:57;;;;;;;;;;;;;;;14.69;59.98;99530.19;4365619;32;19987;-90
2022/09/25 05:49:22;;;;;;;;;;;;;;;14.68;59.99;99531.09;4353225;32;19983;-89
2022/09/25 05:51:47;;;;;;;;;;;;;;;14.84;59.99;99531.97;4367139;32;19998;-91
2022/09/25 05:54:12;;;;;;;;;;;;;;;14.98;60.01;99526.84;4359435;32;20015;-89
2022/09/25 05:56:38;;;;;;;;;;;;;;;15.07;60.01;99524.66;4360242;32;20002;-89
2022/09/25 05:59:03;;;;;;;;;;;;;;;15.24;60.03;99520.19;4352922;32;19986;-89
2022/09/25 06:01:28;;;;;;;;;;;;;;;15.36;60.03;99521.28;4353159;32;20002;-91
2022/09/25 06:03:53;;;;;;;;;;;;;;;15.39;60.02;99526.38;4352725;32;19991;-89
2022/09/25 06:06:18;;;;;;;;;;;;;;;15.43;60.03;99527.06;4365766;32;30850;-87
2022/09/25 06:08:44;;;;;;;;;;;;;;;15.44;60.03;99532.22;4369987;32;22103;-88
2022/09/25 06:11:10;;;;;;;;;;;;;;;15.62;60.04;99528.63;4370444;32;19979;-86
2022/09/25 06:13:35;;;;;;;;;;;;;;;15.63;60.05;99532.94;4371570;32;20009;-85
2022/09/25 06:16:01;;;;;;;;;;;;;;;15.77;60.04;99545.25;4369862;32;20010;-86
2022/09/25 06:18:26;;;;;;;;;;;;;;;15.81;60.05;99543.28;4385254;32;20079;-85
2022/09/25 06:20:57;;;;;;;;;;;;;;;15.91;60.05;99539.25;4368944;32;19996;-87
2022/09/25 06:23:22;;;;;;;;;;;;;;;15.98;60.05;99537.94;4353645;32;20007;-86
2022/09/25 06:25:47;;;;;;;;;;;;;;;15.96;60.06;99538.03;4365612;32;23975;-87
2022/09/25 06:28:12;;;;;;;;;;;;;;;16.09;60.07;99543.44;4378650;32;25096;-88
2022/09/25 06:30:38;;;;;;;;;;;;;;;16.13;60.07;99534.44;4366540;32;19985;-86
2022/09/25 06:33:11;;;;;;;;;;;;;;;16.12;60.07;99543.25;4365883;32;20005;-86
2022/09/25 06:35:43;;;;;;;;;;;;;;;16.24;60.08;99534.66;4353318;32;19990;-85
2022/09/25 06:38:09;;;;;;;;;;;;;;;16.30;60.07;99541.31;4380480;32;20835;-87
2022/09/25 06:40:36;;;;;;;;;;;;;;;16.24;60.08;99549.56;4367946;32;19974;-87
2022/09/25 06:43:02;;;;;;;;;;;;;;;16.40;60.09;99541.63;4355920;32;20009;-87
2022/09/25 06:45:28;;;;;;;;;;;;;;;16.49;60.09;99543.69;4381620;32;19983;-88
2022/09/25 06:47:58;;;;;;;;;;;;;;;16.61;60.09;99547.41;4355303;32;20381;-86
2022/09/25 06:50:24;;;;;;;;;;;;;;;16.70;60.10;99539.81;4370447;32;19979;-87
2022/09/25 06:52:49;;;;;;;;;;;;;;;16.69;60.09;99543.37;4369491;32;20041;-87
2022/09/25 06:55:15;;;;;;;;;;;;;;;16.95;60.11;99546.22;4380988;32;28689;-88
2022/09/25 06:57:40;;;;;;;;;;;;;;;16.98;60.11;99546.03;4367446;32;19986;-87
2022/09/25 07:00:05;;;;;;;;;;;;;;;16.94;60.12;99555.03;4365176;32;19971;-86
2022/09/25 07:05:15;;;;;;;;;;;;;;;17.55;60.15;99543.34;4381369;32;20469;-87
2022/09/25 07:07:40;;;;;;;;;;;;;;;17.60;60.14;99544.72;4380299;32;20002;-87
2022/09/25 07:10:05;;;;;;;;;;;;;;;17.61;60.14;99543.78;4354755;32;27568;-88
2022/09/25 07:12:32;;;;;;;;;;;;;;;17.66;60.15;99535.56;4379973;32;19991;-87
2022/09/25 07:14:57;;;;;;;;;;;;;;;17.91;60.16;99532.22;4379722;32;20002;-88
2022/09/25 07:17:22;;;;;;;;;;;;;;;17.65;60.15;99528.63;4365461;32;26605;-88
2022/09/25 07:19:48;;;;;;;;;;;;;;;17.53;60.14;99529.44;4366824;32;21547;-88
2022/09/25 07:22:13;;;;;;;;;;;;;;;17.67;60.15;99524.09;4381728;32;24495;-88
2022/09/25 07:24:38;;;;;;;;;;;;;;;17.89;60.16;99527.06;4380020;32;26136;-87
2022/09/25 07:27:03;;;;;;;;;;;;;;;18.25;60.18;99528.22;4365352;32;23801;-88
2022/09/25 07:29:29;;;;;;;;;;;;;;;18.30;60.18;99528.75;4378166;32;36580;-87
2022/09/25 07:31:55;;;;;;;;;;;;;;;18.42;60.19;99527.91;4353831;32;20013;-88
2022/09/25 07:34:20;;;;;;;;;;;;;;;18.52;60.19;99526.34;4367673;32;20007;-87
2022/09/25 07:36:46;;;;;;;;;;;;;;;18.83;60.21;99524.25;4380912;32;20480;-87
2022/09/25 07:39:11;;;;;;;;;;;;;;;19.02;60.22;99527.31;4351963;32;19990;-88
2022/09/25 07:41:37;;;;;;;;;;;;;;;19.13;60.22;99524.75;4359761;32;19990;-86
2022/09/25 07:44:03;;;;;;;;;;;;;;;19.26;60.23;99517.66;4377696;32;20025;-87
2022/09/25 07:46:30;;;;;;;;;;;;;;;19.45;60.24;99518.97;4378240;32;20264;-86
2022/09/25 07:48:55;;;;;;;;;;;;;;;19.64;60.26;99506.16;4365329;32;20613;-85
2022/09/25 07:51:21;;;;;;;;;;;;;;;19.72;60.26;99503.78;4365634;32;20032;-86
2022/09/25 07:53:46;;;;;;;;;;;;;;;19.88;60.27;99495.59;4379182;32;20025;-86
2022/09/25 07:56:11;;;;;;;;;;;;;;;19.88;60.26;99491.16;4352708;32;19997;-87
2022/09/25 07:58:37;;;;;;;;;;;;;;;20.05;60.28;99489.87;4365912;32;20031;-86
2022/09/25 08:01:03;;;;;;;;;;;;;;;20.12;60.28;99487.62;4380396;32;20321;-87
2022/09/25 08:03:28;;;;;;;;;;;;;;;20.02;60.27;99494.53;4371309;32;19991;-86
2022/09/25 08:05:57;;;;;;;;;;;;;;;20.08;60.27;99491.44;4369551;32;19978;-85
2022/09/25 08:08:22;;;;;;;;;;;;;;;19.97;60.27;99494.06;4384870;32;19967;-87
2022/09/25 08:10:47;;;;;;;;;;;;;;;20.04;60.27;99484.69;4357900;32;20021;-87
2022/09/25 08:13:13;;;;;;;;;;;;;;;19.91;60.26;99488.28;4370726;32;20013;-86
2022/09/25 08:15:38;;;;;;;;;;;;;;;19.92;60.27;99489.13;4359522;32;20017;-86
2022/09/25 08:18:03;;;;;;;;;;;;;;;19.89;60.27;99490.19;4369591;32;19990;-86
2022/09/25 08:20:28;;;;;;;;;;;;;;;19.81;60.26;99489.91;4370578;32;20955;-86
2022/09/25 08:22:56;;;;;;;;;;;;;;;20.01;60.28;99485.78;4370471;32;20249;-87
2022/09/25 08:25:21;;;;;;;;;;;;;;;20.14;60.28;99491.00;4371349;32;19983;-86
2022/09/25 08:27:46;;;;;;;;;;;;;;;20.02;60.28;99502.47;4385121;32;20770;-86
2022/09/25 08:30:12;;;;;;;;;;;;;;;20.04;60.28;99506.69;4382980;32;19982;-85
2022/09/25 08:32:38;;;;;;;;;;;;;;;20.01;60.28;99514.84;4369258;32;19995;-87
2022/09/25 08:35:03;;;;;;;;;;;;;;;19.83;60.26;99509.12;4382555;32;20005;-85
2022/09/25 08:37:30;;;;;;;;;;;;;;;19.97;60.27;99516.03;4356443;32;19975;-87
2022/09/25 08:39:56;;;;;;;;;;;;;;;19.96;60.27;99510.84;4369429;32;19991;-87
2022/09/25 08:42:26;;;;;;;;;;;;;;;20.07;60.27;99510.88;4383069;32;20010;-88
2022/09/25 08:50:20;;;;;;;;;;;;;;;20.17;60.29;99503.97;4382994;32;20053;-87
2022/09/25 08:52:47;;;;;;;;;;;;;;;20.20;60.28;99501.09;4367765;32;20487;-86
2022/09/25 08:55:16;;;;;;;;;;;;;;;20.22;60.28;99499.19;4368876;32;20017;-88
2022/09/25 08:57:44;;;;;;;;;;;;;;;20.25;60.29;99504.22;4368644;32;20364;-89
2022/09/25 09:00:16;;;;;;;;;;;;;;;20.32;60.29;99494.84;4369969;32;19983;-88
2022/09/25 09:02:44;;;;;;;;;;;;;;;20.37;60.30;99505.09;4370457;32;19990;-87
2022/09/25 09:05:14;;;;;;;;;;;;;;;20.28;60.29;99505.78;4369976;32;20993;-87
2022/09/25 09:07:41;;;;;;;;;;;;;;;20.35;60.30;99513.16;4368459;32;19988;-89
2022/09/25 09:10:15;;;;;;;;;;;;;;;20.44;60.29;99515.13;4380932;32;19987;-88
2022/09/25 09:12:44;;;;;;;;;;;;;;;20.43;60.30;99516.09;4379819;32;20011;-86
2022/09/25 09:15:28;;;;;;;;;;;;;;;20.25;60.29;99514.78;4365459;32;19997;-86
2022/09/25 09:17:54;;;;;;;;;;;;;;;20.30;60.29;99515.28;4367583;32;20092;-87
2022/09/25 09:20:21;;;;;;;;;;;;;;;20.27;60.30;99512.87;4366206;32;23646;-88
2022/09/25 09:22:51;;;;;;;;;;;;;;;20.27;60.29;99512.87;4365577;32;20014;-87
2022/09/25 09:25:27;;;;;;;;;;;;;;;20.26;60.29;99516.47;4365763;32;19997;-88
2022/09/25 09:28:10;;;;;;;;;;;;;;;20.08;60.27;99515.22;4366018;32;19985;-90
2022/09/25 09:30:44;;;;;;;;;;;;;;;20.03;60.28;99512.91;4354177;32;20062;-90
2022/09/25 09:33:12;;;;;;;;;;;;;;;20.11;60.29;99521.13;4365021;32;19998;-91
2022/09/25 09:35:58;;;;;;;;;;;;;;;20.12;60.28;99514.06;4352549;32;20466;-90
2022/09/25 09:38:47;;;;;;;;;;;;;;;20.03;60.28;99518.19;4366173;32;20062;-90
2022/09/25 09:41:17;;;;;;;;;;;;;;;20.04;60.28;99519.88;4373143;32;19979;-89
2022/09/25 09:43:52;;;;;;;;;;;;;;;20.13;60.28;99507.81;4379134;32;19991;-89
2022/09/25 09:46:26;;;;;;;;;;;;;;;19.89;60.27;99516.59;4365834;32;19997;-90
2022/09/25 09:49:03;;;;;;;;;;;;;;;19.80;60.27;99513.78;4352682;32;19979;-89
2022/09/25 09:51:34;;;;;;;;;;;;;;;19.91;60.27;99517.34;4365609;32;19967;-89
2022/09/25 09:54:03;;;;;;;;;;;;;;;19.90;60.27;99515.66;4356303;32;20683;-89
2022/09/25 09:56:34;;;;;;;;;;;;;;;19.99;60.28;99505.34;4353363;32;20174;-87
2022/09/25 09:59:00;;;;;;;;;;;;;;;20.02;60.28;99507.75;4365962;32;20057;-88
2022/09/25 10:01:27;;;;;;;;;;;;;;;19.96;60.27;99508.22;4353498;32;20030;-89
2022/09/25 10:04:06;;;;;;;;;;;;;;;19.92;60.27;99507.59;4367449;32;19990;-90
2022/09/25 10:06:33;;;;;;;;;;;;;;;19.90;60.27;99512.16;4353766;32;20697;-88
2022/09/25 10:08:58;;;;;;;;;;;;;;;19.76;60.28;99510.53;4368378;32;19981;-88
2022/09/25 10:11:27;;;;;;;;;;;;;;;19.84;60.27;99513.44;4355983;32;19991;-87
2022/09/25 10:13:52;;;;;;;;;;;;;;;19.88;60.28;99509.62;4371764;32;19983;-89
2022/09/25 10:16:18;;;;;;;;;;;;;;;19.91;60.27;99506.75;4384751;32;20034;-87
2022/09/25 10:18:56;;;;;;;;;;;;;;;19.85;60.28;99514.28;4366954;32;19990;-87
2022/09/25 10:21:25;;;;;;;;;;;;;;;19.91;60.27;99514.69;4380923;32;20005;-88
2022/09/25 10:23:51;;;;;;;;;;;;;;;19.95;60.28;99515.31;4367745;32;19986;-89
2022/09/25 10:26:35;;;;;;;;;;;;;;;19.89;60.27;99521.87;4367563;32;20383;-88
2022/09/25 10:29:01;;;;;;;;;;;;;;;20.00;60.28;99521.06;4355583;32;20002;-88
2022/09/25 10:31:31;;;;;;;;;;;;;;;20.08;60.29;99520.50;4354354;32;20276;-90
2022/09/25 10:34:00;;;;;;;;;;;;;;;20.07;60.28;99514.38;4353205;32;19990;-89
2022/09/25 10:36:30;;;;;;;;;;;;;;;20.04;60.28;99519.03;4352372;32;20004;-90
2022/09/25 10:38:55;;;;;;;;;;;;;;;20.03;60.28;99510.28;4365801;32;19971;-89
2022/09/25 10:41:20;;;;;;;;;;;;;;;20.02;60.28;99505.09;4365241;32;20041;-90
2022/09/25 10:43:49;;;;;;;;;;;;;;;19.98;60.28;99504.50;4366915;32;20054;-89
2022/09/25 10:50:09;;;;;;;;;;;;;;;20.00;60.28;99502.59;4381079;32;19978;-90
2022/09/25 10:52:16;;;;;;;;;;;;;;;20.13;60.28;99498.06;4379708;32;20327;-90
2022/09/25 10:54:41;;;;;;;;;;;;;;;20.19;60.29;99491.47;4365708;32;20006;-89
2022/09/25 10:57:22;;;;;;;;;;;;;;;20.19;60.29;99496.78;4365061;32;20601;-89
2022/09/25 10:59:48;;;;;;;;;;;;;;;20.17;60.29;99499.53;4353304;32;19978;-88
2022/09/25 11:02:18;;;;;;;;;;;;;;;20.28;60.29;99493.41;4364455;32;19999;-90
2022/09/25 11:04:44;;;;;;;;;;;;;;;20.30;60.29;99480.06;4352427;32;19995;-89
2022/09/25 11:07:11;;;;;;;;;;;;;;;20.11;60.29;99477.97;4365487;32;20032;-88
2022/09/25 11:09:36;;;;;;;;;;;;;;;20.22;60.29;99478.03;4354904;32;20130;-89
2022/09/25 11:12:06;;;;;;;;;;;;;;;20.17;60.29;99467.81;4367636;32;20332;-91
2022/09/25 11:14:32;;;;;;;;;;;;;;;20.32;60.30;99473.72;4367757;32;20006;-90
2022/09/25 11:16:58;;;;;;;;;;;;;;;20.43;60.30;99481.72;4353399;32;20037;-90
2022/09/25 11:19:27;;;;;;;;;;;;;;;20.59;60.31;99478.72;4379249;32;19976;-88
2022/09/25 11:21:58;;;;;;;;;;;;;;;20.47;60.31;99469.09;4380129;32;20640;-91
2022/09/25 11:24:31;;;;;;;;;;;;;;;20.00;60.28;99478.81;4381092;32;19991;-90
2022/09/25 11:27:05;;;;;;;;;;;;;;;19.85;60.28;99475.50;4365388;32;20044;-90
2022/09/25 11:29:37;;;;;;;;;;;;;;;19.76;60.26;99478.84;4365639;32;19986;-90
2022/09/25 11:32:09;;;;;;;;;;;;;;;19.90;60.27;99476.03;4365749;32;20265;-90
2022/09/25 11:34:41;;;;;;;;;;;;;;;19.71;60.27;99480.13;4378966;32;20035;-90
2022/09/25 11:37:19;;;;;;;;;;;;;;;19.40;60.25;99481.50;4379609;32;19982;-90
2022/09/25 11:42:35;;;;;;;;;;;;;;;19.18;60.23;99487.50;4368229;32;20134;-89
2022/09/25 11:45:07;;;;;;;;;;;;;;;19.09;60.23;99486.34;4353072;32;20010;-89
2022/09/25 11:47:38;;;;;;;;;;;;;;;19.21;60.24;99487.28;4378862;32;20354;-89
2022/09/25 11:50:06;;;;;;;;;;;;;;;19.26;60.24;99487.78;4365826;32;20005;-89
2022/09/25 11:52:41;;;;;;;;;;;;;;;19.26;60.24;99483.34;4366329;32;20339;-89
2022/09/25 11:55:18;;;;;;;;;;;;;;;19.16;60.24;99478.81;4367855;32;20009;-88
2022/09/25 11:57:54;;;;;;;;;;;;;;;19.19;60.24;99483.91;4381626;32;20772;-90
2022/09/25 12:00:41;;;;;;;;;;;;;;;19.41;60.25;99478.78;4365040;32;19991;-90
2022/09/25 12:03:21;;;;;;;;;;;;;;;19.24;60.24;99477.34;4364948;32;20045;-89
2022/09/25 12:06:05;;;;;;;;;;;;;;;19.13;60.23;99474.59;4380501;32;20332;-89
2022/09/25 12:08:49;;;;;;;;;;;;;;;19.22;60.23;99473.97;4377268;32;19975;-89
2022/09/25 12:11:44;;;;;;;;;;;;;;;18.95;60.22;99475.94;4363872;32;19985;-87
2022/09/25 12:14:16;;;;;;;;;;;;;;;19.04;60.23;99471.81;4363688;32;20004;-88
2022/09/25 12:16:47;;;;;;;;;;;;;;;18.91;60.22;99464.75;4367101;32;19978;-87
2022/09/25 12:19:25;;;;;;;;;;;;;;;19.24;60.24;99464.16;4352910;32;19959;-89
2022/09/25 12:22:12;;;;;;;;;;;;;;;19.31;60.24;99467.19;4377816;32;19984;-88
2022/09/25 12:24:46;;;;;;;;;;;;;;;19.25;60.24;99478.19;4362504;32;19983;-88
2022/09/25 12:27:47;;;;;;;;;;;;;;;19.10;60.23;99477.47;4378697;32;19998;-88
2022/09/25 12:30:16;;;;;;;;;;;;;;;18.93;60.22;99483.97;4347583;33;19979;-88
2022/09/25 12:32:57;;;;;;;;;;;;;;;19.19;60.23;99468.91;4359427;32;19983;-87
2022/09/25 12:35:41;;;;;;;;;;;;;;;19.12;60.23;99462.38;4378237;32;20001;-89
2022/09/25 12:38:16;;;;;;;;;;;;;;;18.90;60.22;99456.94;4365925;32;20035;-89
2022/09/25 12:40:42;;;;;;;;;;;;;;;18.81;60.21;99468.16;4378620;32;19998;-90
2022/09/25 12:43:26;;;;;;;;;;;;;;;18.52;60.20;99467.53;4366457;32;19994;-90
2022/09/25 12:46:11;;;;;;;;;;;;;;;18.54;60.19;99462.97;4365233;32;19994;-90
2022/09/25 12:48:38;;;;;;;;;;;;;;;18.45;60.19;99459.16;4366424;32;19990;-90
2022/09/25 12:51:09;;;;;;;;;;;;;;;18.65;60.20;99463.94;4367522;32;20001;-89
2022/09/25 12:53:35;;;;;;;;;;;;;;;18.49;60.20;99452.75;4369460;32;19971;-89
2022/09/25 12:56:24;;;;;;;;;;;;;;;18.46;60.20;99458.25;4369270;32;19963;-90
2022/09/25 12:58:52;;;;;;;;;;;;;;;18.41;60.19;99450.63;4378713;32;19994;-89
2022/09/25 13:01:19;;;;;;;;;;;;;;;18.53;60.19;99463.94;4367448;32;19997;-90
2022/09/25 13:03:46;;;;;;;;;;;;;;;18.66;60.20;99449.81;4388928;32;19959;-89
2022/09/25 13:06:27;;;;;;;;;;;;;;;18.76;60.21;99451.81;4373710;32;19995;-88
2022/09/25 13:09:22;;;;;;;;;;;;;;;18.84;60.23;99446.84;4367337;32;20009;-89
2022/09/25 13:11:54;;;;;;;;;;;;;;;18.47;60.19;99451.19;4373202;32;20033;-89
2022/09/25 13:14:25;;;;;;;;;;;;;;;18.85;60.22;99437.97;4354066;32;19983;-90
2022/09/25 13:16:50;;;;;;;;;;;;;;;18.82;60.21;99439.03;4354179;32;20003;-89